createdAt,value
2022-11-29T00:01:25.593Z,5.38
2022-11-29T00:04:10.314Z,5.43
2022-11-29T00:06:55.015Z,5.50
2022-11-29T00:09:39.803Z,5.45
2022-11-29T00:12:25.035Z,5.48
2022-11-29T00:15:09.935Z,5.48
2022-11-29T00:17:54.649Z,5.48
2022-11-29T00:20:39.437Z,5.42
2022-11-29T00:23:24.211Z,5.38
2022-11-29T00:26:08.913Z,5.38
2022-11-29T00:28:53.707Z,5.27
2022-11-29T00:31:38.471Z,5.25
2022-11-29T00:34:23.343Z,5.28
2022-11-29T00:37:08.089Z,5.27
2022-11-29T00:39:52.851Z,5.25
2022-11-29T00:42:37.669Z,5.25
2022-11-29T00:45:22.487Z,5.15
2022-11-29T00:48:07.237Z,4.98
2022-11-29T00:50:52.039Z,4.94
2022-11-29T00:53:37.004Z,4.98
2022-11-29T00:56:21.701Z,4.95
2022-11-29T00:59:06.588Z,4.78
2022-11-29T01:01:51.242Z,4.70
2022-11-29T01:04:35.998Z,4.76
2022-11-29T01:07:21.955Z,4.83
2022-11-29T01:10:06.641Z,4.89
2022-11-29T01:12:51.379Z,4.80
2022-11-29T01:15:36.164Z,4.88
2022-11-29T01:18:21.143Z,4.96
2022-11-29T01:21:05.843Z,5.01
2022-11-29T01:23:50.659Z,5.05
2022-11-29T01:26:35.328Z,5.04
2022-11-29T01:29:20.249Z,5.08
2022-11-29T01:32:04.910Z,5.08
2022-11-29T01:34:49.839Z,5.09
2022-11-29T01:37:34.524Z,5.05
2022-11-29T01:40:19.226Z,5.05
2022-11-29T01:43:03.966Z,5.04
2022-11-29T01:45:48.799Z,4.99
2022-11-29T01:48:33.591Z,5.02
2022-11-29T01:51:18.314Z,4.99
2022-11-29T01:54:03.137Z,4.96
2022-11-29T01:56:47.714Z,4.95
2022-11-29T01:59:32.551Z,4.92
2022-11-29T02:02:17.255Z,4.91
2022-11-29T02:05:02.176Z,4.87
2022-11-29T02:07:46.918Z,4.89
2022-11-29T02:10:31.594Z,4.86
2022-11-29T02:13:16.272Z,4.80
2022-11-29T02:16:01.185Z,4.80
2022-11-29T02:18:45.923Z,4.74
2022-11-29T02:21:30.718Z,4.78
2022-11-29T02:24:15.751Z,4.80
2022-11-29T02:27:00.489Z,4.80
2022-11-29T02:29:45.269Z,4.82
2022-11-29T02:32:29.982Z,4.82
2022-11-29T02:35:14.757Z,4.82
2022-11-29T02:37:59.447Z,4.83
2022-11-29T02:40:44.108Z,4.82
2022-11-29T02:43:28.816Z,4.76
2022-11-29T02:46:13.623Z,4.72
2022-11-29T02:48:58.530Z,4.72
2022-11-29T02:51:43.334Z,4.76
2022-11-29T02:54:28.040Z,4.68
2022-11-29T02:57:12.663Z,4.71
2022-11-29T02:59:57.471Z,4.73
2022-11-29T03:02:42.279Z,4.74
2022-11-29T03:05:27.045Z,4.73
2022-11-29T03:08:11.767Z,4.79
2022-11-29T03:10:56.377Z,4.83
2022-11-29T03:13:41.085Z,4.84
2022-11-29T03:16:25.764Z,4.84
2022-11-29T03:19:10.571Z,4.73
2022-11-29T03:21:55.373Z,4.50
2022-11-29T03:24:40.221Z,4.37
2022-11-29T03:27:24.914Z,4.17
2022-11-29T03:30:09.693Z,4.03
2022-11-29T03:32:54.386Z,3.86
2022-11-29T03:35:39.534Z,3.62
2022-11-29T03:38:24.346Z,3.53
2022-11-29T03:41:09.162Z,3.48
2022-11-29T03:43:53.988Z,3.38
2022-11-29T03:46:38.827Z,3.35
2022-11-29T03:49:23.584Z,3.31
2022-11-29T03:52:08.207Z,3.35
2022-11-29T03:54:53.064Z,3.35
2022-11-29T03:57:37.830Z,3.43
2022-11-29T04:00:22.542Z,3.48
2022-11-29T04:03:07.303Z,3.51
2022-11-29T04:05:52.115Z,3.52
2022-11-29T04:08:36.908Z,3.55
2022-11-29T04:11:21.680Z,3.52
2022-11-29T04:14:06.386Z,3.53
2022-11-29T04:16:51.139Z,3.55
2022-11-29T04:19:35.960Z,3.69
2022-11-29T04:22:20.691Z,3.84
2022-11-29T04:25:05.514Z,3.93
2022-11-29T04:27:50.288Z,3.96
2022-11-29T04:30:35.070Z,4.01
2022-11-29T04:33:19.813Z,4.00
2022-11-29T04:36:04.604Z,3.96
2022-11-29T04:38:49.371Z,3.93
2022-11-29T04:41:34.237Z,3.94
2022-11-29T04:44:18.953Z,3.94
2022-11-29T04:47:03.693Z,3.96
2022-11-29T04:49:48.410Z,3.96
2022-11-29T04:52:33.275Z,3.91
2022-11-29T04:55:26.142Z,3.91
2022-11-29T04:58:11.385Z,3.92
2022-11-29T05:00:56.077Z,3.98
2022-11-29T05:03:40.885Z,3.99
2022-11-29T05:06:25.529Z,3.92
2022-11-29T05:09:10.152Z,3.87
2022-11-29T05:11:54.903Z,3.94
2022-11-29T05:14:39.694Z,3.95
2022-11-29T05:17:24.535Z,4.00
2022-11-29T05:20:09.393Z,4.03
2022-11-29T05:22:54.187Z,4.04
2022-11-29T05:25:38.936Z,4.07
2022-11-29T05:28:23.808Z,4.11
2022-11-29T05:31:08.652Z,4.08
2022-11-29T05:33:53.274Z,4.05
2022-11-29T05:36:37.937Z,4.02
2022-11-29T05:39:22.664Z,4.02
2022-11-29T05:42:07.417Z,4.04
2022-11-29T05:44:52.154Z,4.07
2022-11-29T05:47:36.970Z,4.08
2022-11-29T05:50:21.575Z,4.09
2022-11-29T05:53:06.345Z,4.12
2022-11-29T05:55:50.980Z,4.14
2022-11-29T05:58:35.752Z,4.07
2022-11-29T06:01:20.405Z,4.03
2022-11-29T06:04:07.028Z,4.04
2022-11-29T06:06:55.370Z,4.05
2022-11-29T06:09:40.123Z,4.07
2022-11-29T06:12:25.595Z,4.09
2022-11-29T06:15:10.288Z,4.08
2022-11-29T06:17:55.095Z,4.10
2022-11-29T06:20:39.736Z,4.11
2022-11-29T06:23:24.656Z,4.12
2022-11-29T06:26:09.333Z,4.08
2022-11-29T06:28:54.190Z,4.09
2022-11-29T06:31:39.075Z,4.11
2022-11-29T06:34:29.165Z,4.09
2022-11-29T06:37:15.707Z,4.09
2022-11-29T06:40:00.468Z,4.06
2022-11-29T06:42:45.216Z,4.05
2022-11-29T06:45:30.045Z,4.08
2022-11-29T06:48:14.635Z,4.09
2022-11-29T06:50:59.456Z,4.08
2022-11-29T06:53:44.119Z,4.10
2022-11-29T06:56:29.004Z,3.96
2022-11-29T06:59:13.778Z,3.83
2022-11-29T07:01:58.658Z,3.79
2022-11-29T07:04:46.140Z,3.72
2022-11-29T07:07:31.331Z,3.67
2022-11-29T07:10:16.085Z,3.49
2022-11-29T07:13:00.870Z,3.55
2022-11-29T07:15:45.727Z,3.72
2022-11-29T07:18:30.520Z,3.78
2022-11-29T07:21:15.300Z,3.78
2022-11-29T07:24:00.342Z,3.85
2022-11-29T07:26:45.106Z,3.87
2022-11-29T07:29:29.886Z,3.92
2022-11-29T07:32:14.514Z,3.96
2022-11-29T07:34:59.220Z,4.01
2022-11-29T07:37:43.959Z,4.09
2022-11-29T07:40:31.932Z,4.10
2022-11-29T07:43:19.667Z,4.10
2022-11-29T07:46:04.334Z,4.17
2022-11-29T07:48:49.090Z,4.22
2022-11-29T07:51:33.701Z,4.21
2022-11-29T07:54:18.384Z,4.26
2022-11-29T07:57:03.223Z,4.24
2022-11-29T07:59:47.915Z,4.29
2022-11-29T08:02:33.151Z,4.29
2022-11-29T08:05:17.882Z,4.33
2022-11-29T08:08:02.700Z,4.25
2022-11-29T08:10:47.407Z,4.28
2022-11-29T08:13:32.216Z,4.18
2022-11-29T08:16:16.822Z,4.06
2022-11-29T08:19:01.662Z,4.03
2022-11-29T08:21:46.464Z,4.09
2022-11-29T08:24:31.247Z,4.28
2022-11-29T08:27:16.071Z,4.36
2022-11-29T08:30:00.741Z,4.47
2022-11-29T08:32:49.995Z,4.55
2022-11-29T08:35:36.351Z,4.58
2022-11-29T08:38:21.046Z,4.60
2022-11-29T08:41:05.876Z,4.70
2022-11-29T08:43:50.564Z,4.68
2022-11-29T08:46:35.345Z,4.61
2022-11-29T08:49:20.107Z,4.50
2022-11-29T08:52:04.939Z,4.42
2022-11-29T08:54:49.813Z,4.40
2022-11-29T08:57:41.730Z,4.45
2022-11-29T09:00:27.022Z,4.47
2022-11-29T09:03:11.729Z,4.48
2022-11-29T09:05:56.467Z,4.52
2022-11-29T09:08:41.238Z,4.58
2022-11-29T09:11:26.028Z,4.67
2022-11-29T09:14:10.863Z,4.75
2022-11-29T09:16:55.609Z,4.80
2022-11-29T09:19:40.886Z,4.90
2022-11-29T09:22:25.628Z,4.97
2022-11-29T09:25:10.418Z,5.03
2022-11-29T09:27:55.116Z,5.17
2022-11-29T09:30:40.058Z,5.27
2022-11-29T09:33:24.748Z,5.35
2022-11-29T09:36:09.390Z,5.44
2022-11-29T09:38:54.158Z,5.44
2022-11-29T09:41:40.281Z,5.44
2022-11-29T09:44:26.632Z,5.34
2022-11-29T09:47:11.287Z,5.31
2022-11-29T09:49:56.030Z,5.31
2022-11-29T09:52:40.916Z,5.22
2022-11-29T09:55:25.696Z,5.12
2022-11-29T09:58:10.698Z,4.98
2022-11-29T10:00:55.586Z,4.94
2022-11-29T10:03:40.653Z,5.03
2022-11-29T10:06:25.360Z,5.15
2022-11-29T10:09:10.169Z,5.23
2022-11-29T10:11:54.807Z,5.30
2022-11-29T10:14:39.594Z,5.34
2022-11-29T10:17:24.438Z,5.40
2022-11-29T10:20:09.088Z,5.44
2022-11-29T10:22:53.777Z,5.47
2022-11-29T10:25:38.590Z,5.45
2022-11-29T10:28:23.469Z,5.49
2022-11-29T10:31:08.303Z,5.55
2022-11-29T10:33:53.053Z,5.36
2022-11-29T10:36:37.720Z,5.24
2022-11-29T10:39:22.476Z,5.22
2022-11-29T10:42:07.208Z,5.26
2022-11-29T10:44:52.018Z,5.16
2022-11-29T10:47:36.599Z,5.02
2022-11-29T10:50:21.375Z,4.80
2022-11-29T10:53:06.263Z,4.66
2022-11-29T10:55:51.114Z,4.54
2022-11-29T10:58:35.794Z,4.52
2022-11-29T11:01:20.516Z,4.46
2022-11-29T11:04:05.406Z,4.54
2022-11-29T11:06:49.989Z,4.62
2022-11-29T11:09:34.800Z,4.79
2022-11-29T11:12:19.601Z,4.84
2022-11-29T11:15:04.503Z,4.79
2022-11-29T11:17:49.249Z,4.87
2022-11-29T11:20:34.019Z,5.03
2022-11-29T11:23:18.922Z,4.98
2022-11-29T11:26:03.548Z,4.97
2022-11-29T11:28:48.346Z,5.07
2022-11-29T11:31:33.142Z,5.11
2022-11-29T11:34:18.086Z,5.24
2022-11-29T11:37:02.758Z,5.33
2022-11-29T11:39:47.643Z,5.41
2022-11-29T11:42:32.360Z,5.51
2022-11-29T11:45:17.106Z,5.41
2022-11-29T11:48:01.847Z,5.19
2022-11-29T11:50:46.540Z,4.94
2022-11-29T11:53:31.382Z,4.91
2022-11-29T11:56:16.132Z,4.91
2022-11-29T11:59:00.976Z,4.72
2022-11-29T12:01:45.680Z,4.69
2022-11-29T12:04:30.512Z,4.66
2022-11-29T12:07:15.444Z,4.55
2022-11-29T12:10:00.743Z,4.49
2022-11-29T12:12:45.475Z,4.53
2022-11-29T12:15:30.113Z,4.50
2022-11-29T12:18:14.874Z,4.47
2022-11-29T12:20:59.557Z,4.47
2022-11-29T12:23:44.359Z,4.58
2022-11-29T12:26:56.034Z,4.52
2022-11-29T12:29:34.179Z,4.61
2022-11-29T12:32:18.875Z,4.67
2022-11-29T12:35:03.835Z,4.68
2022-11-29T12:37:48.512Z,4.73
2022-11-29T12:40:33.198Z,4.76
2022-11-29T12:43:18.014Z,4.91
2022-11-29T12:46:02.817Z,5.02
2022-11-29T12:48:47.969Z,5.18
2022-11-29T12:51:32.764Z,5.14
2022-11-29T12:54:17.564Z,5.25
2022-11-29T12:57:02.249Z,5.33
2022-11-29T12:59:47.055Z,5.41
2022-11-29T13:02:31.915Z,5.45
2022-11-29T13:05:16.593Z,5.49
2022-11-29T13:08:01.622Z,5.48
2022-11-29T13:10:46.287Z,5.52
2022-11-29T13:13:31.088Z,5.55
2022-11-29T13:16:21.260Z,5.40
2022-11-29T13:19:06.884Z,5.32
2022-11-29T13:21:51.649Z,5.22
2022-11-29T13:24:42.404Z,5.06
2022-11-29T13:27:27.676Z,4.97
2022-11-29T13:30:12.399Z,4.82
2022-11-29T13:32:57.154Z,4.69
2022-11-29T13:35:42.013Z,4.66
2022-11-29T13:38:26.820Z,4.62
2022-11-29T13:41:11.614Z,4.50
2022-11-29T13:43:56.465Z,4.35
2022-11-29T13:46:41.149Z,4.27
2022-11-29T13:49:26.473Z,4.31
2022-11-29T13:52:11.257Z,4.36
2022-11-29T13:54:56.186Z,4.48
2022-11-29T13:58:08.280Z,4.67
2022-11-29T14:00:45.817Z,4.66
2022-11-29T14:03:30.721Z,4.58
2022-11-29T14:06:15.551Z,4.62
2022-11-29T14:09:18.553Z,4.74
2022-11-29T14:12:04.326Z,4.91
2022-11-29T14:14:48.904Z,4.98
2022-11-29T14:17:33.627Z,5.05
2022-11-29T14:20:18.359Z,5.11
2022-11-29T14:23:03.114Z,5.03
2022-11-29T14:25:52.294Z,5.10
2022-11-29T14:28:37.680Z,5.10
2022-11-29T14:31:22.513Z,4.96
2022-11-29T14:34:07.271Z,4.84
2022-11-29T14:36:52.111Z,4.68
2022-11-29T14:39:36.926Z,4.72
2022-11-29T14:42:21.702Z,4.66
2022-11-29T14:45:06.491Z,4.75
2022-11-29T14:47:51.267Z,4.92
2022-11-29T14:50:36.054Z,4.96
2022-11-29T14:53:20.702Z,5.00
2022-11-29T14:56:05.578Z,4.90
2022-11-29T14:58:50.244Z,4.89
2022-11-29T15:01:35.212Z,4.84
2022-11-29T15:04:20.334Z,4.87
2022-11-29T15:07:05.171Z,4.82
2022-11-29T15:09:49.798Z,4.70
2022-11-29T15:12:34.639Z,4.62
2022-11-29T15:15:19.289Z,4.56
2022-11-29T15:18:03.990Z,4.56
2022-11-29T15:20:48.758Z,4.54
2022-11-29T15:23:33.446Z,4.50
2022-11-29T15:26:18.265Z,4.49
2022-11-29T15:29:03.124Z,4.40
2022-11-29T15:31:47.927Z,4.38
2022-11-29T15:34:32.558Z,4.41
2022-11-29T15:37:17.410Z,4.50
2022-11-29T15:40:02.102Z,4.61
2022-11-29T15:42:46.853Z,4.72
2022-11-29T15:45:31.720Z,4.81
2022-11-29T15:48:16.893Z,4.85
2022-11-29T15:51:01.675Z,4.85
2022-11-29T15:53:46.382Z,4.89
2022-11-29T15:56:31.123Z,4.92
2022-11-29T15:59:15.715Z,4.91
2022-11-29T16:02:00.833Z,4.85
2022-11-29T16:04:47.160Z,4.79
2022-11-29T16:07:32.454Z,4.73
2022-11-29T16:10:17.437Z,4.72
2022-11-29T16:13:02.246Z,4.71
2022-11-29T16:15:47.063Z,4.73
2022-11-29T16:18:31.817Z,4.71
2022-11-29T16:21:16.669Z,4.61
2022-11-29T16:24:01.484Z,4.53
2022-11-29T16:26:46.322Z,4.48
2022-11-29T16:29:30.951Z,4.57
2022-11-29T16:32:15.830Z,4.62
2022-11-29T16:35:00.516Z,4.62
2022-11-29T16:37:45.428Z,4.58
2022-11-29T16:40:30.227Z,4.54
2022-11-29T16:43:14.907Z,4.54
2022-11-29T16:45:59.832Z,4.52
2022-11-29T16:48:44.536Z,4.48
2022-11-29T16:51:29.313Z,4.54
2022-11-29T16:54:14.016Z,4.52
2022-11-29T16:56:58.647Z,4.56
2022-11-29T16:59:43.355Z,4.58
2022-11-29T17:02:28.121Z,4.58
2022-11-29T17:05:12.737Z,4.59
2022-11-29T17:07:57.728Z,4.48
2022-11-29T17:10:42.863Z,4.48
2022-11-29T17:13:27.589Z,4.41
2022-11-29T17:16:12.427Z,4.39
2022-11-29T17:18:57.019Z,4.41
2022-11-29T17:21:41.652Z,4.45
2022-11-29T17:24:26.467Z,4.53
2022-11-29T17:27:11.192Z,4.59
2022-11-29T17:29:55.927Z,4.68
2022-11-29T17:32:40.547Z,4.67
2022-11-29T17:35:25.344Z,4.80
2022-11-29T17:38:10.259Z,4.83
2022-11-29T17:40:55.076Z,4.87
2022-11-29T17:43:39.781Z,4.87
2022-11-29T17:46:24.623Z,4.86
2022-11-29T17:49:09.379Z,4.87
2022-11-29T17:51:54.490Z,4.90
2022-11-29T17:54:39.590Z,4.91
2022-11-29T17:57:24.332Z,4.93
2022-11-29T18:00:09.072Z,4.95
2022-11-29T18:02:53.917Z,4.95
2022-11-29T18:05:38.738Z,4.93
2022-11-29T18:08:23.506Z,4.95
2022-11-29T18:11:08.359Z,5.08
2022-11-29T18:13:53.030Z,5.17
2022-11-29T18:16:37.939Z,5.14
2022-11-29T18:19:22.597Z,5.16
2022-11-29T18:22:07.267Z,5.21
2022-11-29T18:24:57.689Z,5.17
2022-11-29T18:27:50.395Z,5.20
2022-11-29T18:30:35.244Z,5.15
2022-11-29T18:33:20.060Z,5.10
2022-11-29T18:36:04.738Z,5.04
2022-11-29T18:38:49.574Z,4.95
2022-11-29T18:41:34.408Z,4.84
2022-11-29T18:44:19.361Z,4.74
2022-11-29T18:47:04.032Z,4.66
2022-11-29T18:49:48.954Z,4.57
2022-11-29T18:52:39.322Z,4.42
2022-11-29T18:55:25.465Z,4.43
2022-11-29T18:58:10.201Z,4.37
2022-11-29T19:00:54.884Z,4.40
2022-11-29T19:03:40.789Z,4.33
2022-11-29T19:06:25.868Z,4.43
2022-11-29T19:09:10.521Z,4.40
2022-11-29T19:11:55.255Z,4.36
2022-11-29T19:14:43.831Z,4.41
2022-11-29T19:17:31.387Z,4.45
2022-11-29T19:20:16.058Z,4.41
2022-11-29T19:23:00.919Z,4.44
2022-11-29T19:25:45.605Z,4.45
2022-11-29T19:28:30.300Z,4.49
2022-11-29T19:31:15.058Z,4.48
2022-11-29T19:33:59.857Z,4.46
2022-11-29T19:36:45.357Z,4.46
2022-11-29T19:39:30.415Z,4.40
2022-11-29T19:42:15.118Z,4.48
2022-11-29T19:45:17.456Z,4.55
2022-11-29T19:48:03.044Z,4.59
2022-11-29T19:50:47.675Z,4.64
2022-11-29T19:53:32.487Z,4.66
2022-11-29T19:56:17.082Z,4.58
2022-11-29T19:59:01.927Z,4.51
2022-11-29T20:01:46.587Z,4.46
2022-11-29T20:04:31.772Z,4.38
2022-11-29T20:07:16.645Z,4.32
2022-11-29T20:10:01.436Z,4.39
2022-11-29T20:12:46.225Z,4.32
2022-11-29T20:15:31.119Z,4.34
2022-11-29T20:18:15.779Z,4.35
2022-11-29T20:21:00.471Z,4.43
2022-11-29T20:23:45.284Z,4.41
2022-11-29T20:26:29.918Z,4.47
2022-11-29T20:29:14.660Z,4.38
2022-11-29T20:31:59.345Z,4.32
2022-11-29T20:34:44.151Z,4.32
2022-11-29T20:37:28.912Z,4.22
2022-11-29T20:40:13.599Z,4.20
2022-11-29T20:42:58.445Z,4.24
2022-11-29T20:45:43.273Z,4.26
2022-11-29T20:48:28.073Z,4.31
2022-11-29T20:51:12.802Z,4.32
2022-11-29T20:53:57.666Z,4.32
2022-11-29T20:56:42.375Z,4.39
2022-11-29T20:59:27.202Z,4.45
2022-11-29T21:02:11.950Z,4.45
2022-11-29T21:04:56.743Z,4.55
2022-11-29T21:07:41.630Z,4.64
2022-11-29T21:10:26.333Z,4.74
2022-11-29T21:13:11.058Z,4.72
2022-11-29T21:15:55.793Z,4.61
2022-11-29T21:18:40.553Z,4.55
2022-11-29T21:21:25.177Z,4.48
2022-11-29T21:24:09.979Z,4.45
2022-11-29T21:26:54.653Z,4.35
2022-11-29T21:29:39.660Z,4.38
2022-11-29T21:32:24.321Z,4.44
2022-11-29T21:35:09.079Z,4.47
2022-11-29T21:37:53.935Z,4.40
2022-11-29T21:40:38.558Z,4.42
2022-11-29T21:43:50.274Z,4.37
2022-11-29T21:46:28.245Z,4.29
2022-11-29T21:49:12.861Z,4.31
2022-11-29T21:51:57.739Z,4.31
2022-11-29T21:54:42.613Z,4.25
2022-11-29T21:57:27.401Z,4.19
2022-11-29T22:00:12.184Z,4.18
2022-11-29T22:02:57.064Z,4.20
2022-11-29T22:05:41.729Z,4.23
2022-11-29T22:08:26.485Z,4.33
2022-11-29T22:11:11.191Z,4.37
2022-11-29T22:13:55.844Z,4.44
2022-11-29T22:16:40.548Z,4.48
2022-11-29T22:19:25.273Z,4.54
2022-11-29T22:22:10.047Z,4.57
2022-11-29T22:24:54.821Z,4.58
2022-11-29T22:27:39.676Z,4.63
2022-11-29T22:30:24.363Z,4.68
2022-11-29T22:33:13.260Z,4.64
2022-11-29T22:35:58.645Z,4.58
2022-11-29T22:38:43.459Z,4.53
2022-11-29T22:41:28.271Z,4.46
2022-11-29T22:44:12.959Z,4.47
2022-11-29T22:46:57.837Z,4.50
2022-11-29T22:49:42.471Z,4.55
2022-11-29T22:52:27.315Z,4.55
2022-11-29T22:55:11.943Z,4.54
2022-11-29T22:57:56.752Z,4.46
2022-11-29T23:00:41.478Z,4.43
2022-11-29T23:03:26.396Z,4.39
2022-11-29T23:06:11.711Z,4.36
2022-11-29T23:08:56.488Z,4.36
2022-11-29T23:11:41.345Z,4.35
2022-11-29T23:14:25.993Z,4.31
2022-11-29T23:17:10.711Z,4.39
2022-11-29T23:19:55.409Z,4.38
2022-11-29T23:22:40.042Z,4.33
2022-11-29T23:25:24.741Z,4.28
2022-11-29T23:28:09.475Z,4.24
2022-11-29T23:30:54.175Z,4.22
2022-11-29T23:33:39.003Z,4.26
2022-11-29T23:36:23.708Z,4.22
2022-11-29T23:39:08.460Z,4.19
2022-11-29T23:41:53.167Z,4.23
2022-11-29T23:44:37.829Z,4.26
2022-11-29T23:47:22.622Z,4.36
2022-11-29T23:50:07.285Z,4.40
2022-11-29T23:52:52.023Z,4.45
2022-11-29T23:55:36.786Z,4.52
2022-11-29T23:58:21.544Z,4.47
